sensor_id;sensor_type;location;lat;lon;timestamp;pressure;altitude;pressure_sealevel;temperature;humidity
73297;BME280;61524;50.938;11.396;2022-08-05T00:02:22;98692.66;;;18.05;67.87
73297;BME280;61524;50.938;11.396;2022-08-05T00:04:47;98700.34;;;18.12;67.79
73297;BME280;61524;50.938;11.396;2022-08-05T00:07:14;98694.47;;;18.09;67.39
73297;BME280;61524;50.938;11.396;2022-08-05T00:09:39;98695.56;;;18.08;66.81
73297;BME280;61524;50.938;11.396;2022-08-05T00:12:05;98697.16;;;18.09;67.93
73297;BME280;61524;50.938;11.396;2022-08-05T00:14:30;98702.69;;;18.04;68.19
73297;BME280;61524;50.938;11.396;2022-08-05T00:16:56;98700.16;;;18.08;68.03
73297;BME280;61524;50.938;11.396;2022-08-05T00:19:22;98687.69;;;17.98;68.27
73297;BME280;61524;50.938;11.396;2022-08-05T00:21:48;98690.91;;;17.87;68.13
73297;BME280;61524;50.938;11.396;2022-08-05T00:24:13;98686.19;;;17.92;67.45
73297;BME280;61524;50.938;11.396;2022-08-05T00:26:39;98692.19;;;18.03;67.83
73297;BME280;61524;50.938;11.396;2022-08-05T00:29:04;98692.69;;;17.91;68.58
73297;BME280;61524;50.938;11.396;2022-08-05T00:31:30;98693.31;;;17.88;68.77
73297;BME280;61524;50.938;11.396;2022-08-05T00:33:55;98691.00;;;17.81;68.88
73297;BME280;61524;50.938;11.396;2022-08-05T00:36:20;98690.72;;;17.83;68.77
73297;BME280;61524;50.938;11.396;2022-08-05T00:38:48;98687.38;;;17.86;68.50
73297;BME280;61524;50.938;11.396;2022-08-05T00:41:13;98681.59;;;17.79;68.60
73297;BME280;61524;50.938;11.396;2022-08-05T00:43:39;98689.13;;;17.82;69.15
73297;BME280;61524;50.938;11.396;2022-08-05T00:46:04;98676.38;;;17.69;69.38
73297;BME280;61524;50.938;11.396;2022-08-05T00:48:30;98673.47;;;17.38;69.86
73297;BME280;61524;50.938;11.396;2022-08-05T00:50:55;98704.69;;;17.30;70.68
73297;BME280;61524;50.938;11.396;2022-08-05T00:53:22;98665.59;;;17.27;71.08
73297;BME280;61524;50.938;11.396;2022-08-05T00:55:48;98684.78;;;17.26;70.39
73297;BME280;61524;50.938;11.396;2022-08-05T00:58:15;98679.91;;;17.28;70.38
73297;BME280;61524;50.938;11.396;2022-08-05T01:00:41;98679.19;;;17.22;70.68
73297;BME280;61524;50.938;11.396;2022-08-05T01:03:07;98678.78;;;17.29;70.07
73297;BME280;61524;50.938;11.396;2022-08-05T01:05:32;98684.28;;;17.38;69.87
73297;BME280;61524;50.938;11.396;2022-08-05T01:07:58;98682.91;;;17.40;69.77
73297;BME280;61524;50.938;11.396;2022-08-05T01:10:42;98685.81;;;17.44;69.58
73297;BME280;61524;50.938;11.396;2022-08-05T01:16:07;98693.69;;;17.40;70.58
73297;BME280;61524;50.938;11.396;2022-08-05T01:18:39;98692.69;;;17.36;70.12
73297;BME280;61524;50.938;11.396;2022-08-05T01:26:52;98681.38;;;17.20;71.26
73297;BME280;61524;50.938;11.396;2022-08-05T01:29:40;98683.59;;;17.18;70.76
73297;BME280;61524;50.938;11.396;2022-08-05T01:32:10;98672.47;;;17.20;71.54
73297;BME280;61524;50.938;11.396;2022-08-05T01:34:46;98678.69;;;17.07;71.79
73297;BME280;61524;50.938;11.396;2022-08-05T01:37:25;98674.34;;;17.05;71.41
73297;BME280;61524;50.938;11.396;2022-08-05T01:39:56;98677.34;;;17.04;71.87
73297;BME280;61524;50.938;11.396;2022-08-05T01:42:22;98681.47;;;17.01;72.08
73297;BME280;61524;50.938;11.396;2022-08-05T01:44:52;98671.66;;;16.92;72.30
73297;BME280;61524;50.938;11.396;2022-08-05T01:47:20;98672.03;;;16.85;72.59
73297;BME280;61524;50.938;11.396;2022-08-05T01:49:48;98671.53;;;16.83;72.01
73297;BME280;61524;50.938;11.396;2022-08-05T01:52:17;98677.44;;;16.99;72.25
73297;BME280;61524;50.938;11.396;2022-08-05T01:54:53;98668.25;;;16.86;72.63
73297;BME280;61524;50.938;11.396;2022-08-05T01:57:25;98683.19;;;16.78;73.17
73297;BME280;61524;50.938;11.396;2022-08-05T01:59:54;98663.00;;;16.76;73.27
73297;BME280;61524;50.938;11.396;2022-08-05T02:02:23;98664.16;;;16.70;72.86
73297;BME280;61524;50.938;11.396;2022-08-05T02:04:51;98661.78;;;16.68;72.49
73297;BME280;61524;50.938;11.396;2022-08-05T02:07:19;98669.78;;;16.73;72.62
73297;BME280;61524;50.938;11.396;2022-08-05T02:09:45;98666.81;;;16.75;72.20
73297;BME280;61524;50.938;11.396;2022-08-05T02:12:19;98663.91;;;16.71;72.93
73297;BME280;61524;50.938;11.396;2022-08-05T02:14:52;98663.38;;;16.69;73.19
73297;BME280;61524;50.938;11.396;2022-08-05T02:17:26;98681.03;;;16.62;72.99
73297;BME280;61524;50.938;11.396;2022-08-05T02:19:58;98682.91;;;16.61;73.11
73297;BME280;61524;50.938;11.396;2022-08-05T02:22:29;98689.19;;;16.57;73.20
73297;BME280;61524;50.938;11.396;2022-08-05T02:25:04;98690.09;;;16.52;73.96
73297;BME280;61524;50.938;11.396;2022-08-05T02:27:35;98683.31;;;16.54;74.02
73297;BME280;61524;50.938;11.396;2022-08-05T02:30:03;98684.41;;;16.53;74.13
73297;BME280;61524;50.938;11.396;2022-08-05T02:32:30;98668.97;;;16.40;74.34
73297;BME280;61524;50.938;11.396;2022-08-05T02:35:04;98662.66;;;16.31;74.47
73297;BME280;61524;50.938;11.396;2022-08-05T02:37:32;98656.88;;;16.19;75.11
73297;BME280;61524;50.938;11.396;2022-08-05T02:40:00;98652.75;;;16.26;74.80
73297;BME280;61524;50.938;11.396;2022-08-05T02:42:27;98670.94;;;16.35;74.97
73297;BME280;61524;50.938;11.396;2022-08-05T02:44:54;98677.91;;;16.36;74.81
73297;BME280;61524;50.938;11.396;2022-08-05T02:47:21;98676.25;;;16.40;74.38
73297;BME280;61524;50.938;11.396;2022-08-05T02:49:48;98676.16;;;16.45;74.23
73297;BME280;61524;50.938;11.396;2022-08-05T02:52:17;98678.13;;;16.58;74.23
73297;BME280;61524;50.938;11.396;2022-08-05T02:54:44;98670.75;;;16.64;74.05
73297;BME280;61524;50.938;11.396;2022-08-05T02:57:15;98688.75;;;16.68;73.29
73297;BME280;61524;50.938;11.396;2022-08-05T02:59:44;98684.97;;;16.69;73.91
73297;BME280;61524;50.938;11.396;2022-08-05T03:02:12;98682.03;;;16.66;74.20
73297;BME280;61524;50.938;11.396;2022-08-05T03:04:40;98679.13;;;16.62;73.28
73297;BME280;61524;50.938;11.396;2022-08-05T03:07:08;98685.75;;;16.70;73.35
73297;BME280;61524;50.938;11.396;2022-08-05T03:09:35;98682.63;;;16.63;74.43
73297;BME280;61524;50.938;11.396;2022-08-05T03:12:00;98683.94;;;16.65;74.10
73297;BME280;61524;50.938;11.396;2022-08-05T03:14:26;98674.81;;;16.61;74.13
73297;BME280;61524;50.938;11.396;2022-08-05T03:16:52;98690.09;;;16.71;74.03
73297;BME280;61524;50.938;11.396;2022-08-05T03:19:17;98686.13;;;16.82;73.43
73297;BME280;61524;50.938;11.396;2022-08-05T03:21:43;98685.22;;;16.68;74.50
73297;BME280;61524;50.938;11.396;2022-08-05T03:24:09;98688.69;;;16.54;74.09
73297;BME280;61524;50.938;11.396;2022-08-05T03:26:35;98712.22;;;16.68;73.67
73297;BME280;61524;50.938;11.396;2022-08-05T03:29:01;98712.47;;;16.71;73.55
73297;BME280;61524;50.938;11.396;2022-08-05T03:31:27;98723.66;;;16.78;73.28
73297;BME280;61524;50.938;11.396;2022-08-05T03:33:53;98723.59;;;16.84;72.99
73297;BME280;61524;50.938;11.396;2022-08-05T03:36:19;98748.41;;;16.99;72.58
73297;BME280;61524;50.938;11.396;2022-08-05T03:38:44;98788.25;;;17.08;72.41
73297;BME280;61524;50.938;11.396;2022-08-05T03:41:10;98835.97;;;17.12;73.02
73297;BME280;61524;50.938;11.396;2022-08-05T03:43:36;98848.13;;;17.10;73.12
73297;BME280;61524;50.938;11.396;2022-08-05T03:46:02;98843.13;;;17.36;72.41
73297;BME280;61524;50.938;11.396;2022-08-05T03:48:28;98835.38;;;17.62;71.93
73297;BME280;61524;50.938;11.396;2022-08-05T03:51:10;98840.03;;;17.75;71.62
73297;BME280;61524;50.938;11.396;2022-08-05T03:56:16;98847.38;;;17.88;72.01
73297;BME280;61524;50.938;11.396;2022-08-05T03:58:46;98848.25;;;17.83;72.21
73297;BME280;61524;50.938;11.396;2022-08-05T04:01:13;98853.25;;;17.76;73.04
73297;BME280;61524;50.938;11.396;2022-08-05T04:03:41;98861.19;;;17.87;72.91
73297;BME280;61524;50.938;11.396;2022-08-05T04:06:08;98866.47;;;17.92;72.55
73297;BME280;61524;50.938;11.396;2022-08-05T04:08:35;98872.72;;;17.92;72.76
73297;BME280;61524;50.938;11.396;2022-08-05T04:11:01;98873.41;;;18.12;72.51
73297;BME280;61524;50.938;11.396;2022-08-05T04:13:28;98885.72;;;18.45;73.70
73297;BME280;61524;50.938;11.396;2022-08-05T04:15:55;98897.47;;;19.04;73.72
73297;BME280;61524;50.938;11.396;2022-08-05T04:18:23;98905.00;;;19.52;73.99
73297;BME280;61524;50.938;11.396;2022-08-05T04:20:54;98892.81;;;19.86;73.23
73297;BME280;61524;50.938;11.396;2022-08-05T04:23:24;98890.50;;;20.10;73.18
73297;BME280;61524;50.938;11.396;2022-08-05T04:25:50;98876.84;;;20.24;73.51
73297;BME280;61524;50.938;11.396;2022-08-05T04:28:17;98883.41;;;20.32;73.25
73297;BME280;61524;50.938;11.396;2022-08-05T04:30:43;98883.13;;;20.42;73.02
73297;BME280;61524;50.938;11.396;2022-08-05T04:33:08;98878.72;;;20.46;72.94
73297;BME280;61524;50.938;11.396;2022-08-05T04:35:34;98876.31;;;20.53;73.13
73297;BME280;61524;50.938;11.396;2022-08-05T04:37:59;98857.00;;;20.63;73.38
73297;BME280;61524;50.938;11.396;2022-08-05T04:40:25;98860.69;;;20.67;73.96
73297;BME280;61524;50.938;11.396;2022-08-05T04:42:50;98851.94;;;20.79;73.63
73297;BME280;61524;50.938;11.396;2022-08-05T04:45:15;98849.88;;;20.93;73.22
73297;BME280;61524;50.938;11.396;2022-08-05T04:47:41;98845.22;;;21.03;72.98
73297;BME280;61524;50.938;11.396;2022-08-05T04:50:07;98849.53;;;21.21;72.33
73297;BME280;61524;50.938;11.396;2022-08-05T04:52:32;98846.81;;;21.38;71.33
73297;BME280;61524;50.938;11.396;2022-08-05T04:54:58;98851.41;;;21.64;70.85
73297;BME280;61524;50.938;11.396;2022-08-05T04:57:24;98853.09;;;22.24;68.68
73297;BME280;61524;50.938;11.396;2022-08-05T04:59:50;98853.03;;;22.62;67.50
73297;BME280;61524;50.938;11.396;2022-08-05T05:02:15;98852.94;;;23.00;66.15
73297;BME280;61524;50.938;11.396;2022-08-05T05:04:41;98861.53;;;23.56;64.16
73297;BME280;61524;50.938;11.396;2022-08-05T05:07:06;98866.09;;;23.86;62.43
73297;BME280;61524;50.938;11.396;2022-08-05T05:09:32;98861.38;;;23.41;63.57
73297;BME280;61524;50.938;11.396;2022-08-05T05:11:57;98862.84;;;23.05;64.85
73297;BME280;61524;50.938;11.396;2022-08-05T05:14:23;98855.38;;;22.72;65.69
73297;BME280;61524;50.938;11.396;2022-08-05T05:16:49;98839.47;;;22.53;65.29
73297;BME280;61524;50.938;11.396;2022-08-05T05:19:14;98834.44;;;22.05;66.13
73297;BME280;61524;50.938;11.396;2022-08-05T05:21:40;98811.63;;;21.89;67.08
73297;BME280;61524;50.938;11.396;2022-08-05T05:24:05;98790.16;;;21.96;66.43
73297;BME280;61524;50.938;11.396;2022-08-05T05:26:31;98780.63;;;21.81;68.06
73297;BME280;61524;50.938;11.396;2022-08-05T05:28:56;98817.91;;;21.81;67.05
73297;BME280;61524;50.938;11.396;2022-08-05T05:31:22;98825.28;;;21.80;66.48
73297;BME280;61524;50.938;11.396;2022-08-05T05:33:47;98827.69;;;21.73;66.87
73297;BME280;61524;50.938;11.396;2022-08-05T05:36:13;98839.84;;;21.75;66.79
73297;BME280;61524;50.938;11.396;2022-08-05T05:38:38;98857.28;;;21.74;66.79
73297;BME280;61524;50.938;11.396;2022-08-05T05:41:04;98875.84;;;21.72;67.36
73297;BME280;61524;50.938;11.396;2022-08-05T05:43:29;98892.31;;;21.76;67.73
73297;BME280;61524;50.938;11.396;2022-08-05T05:45:55;98910.88;;;21.74;67.25
73297;BME280;61524;50.938;11.396;2022-08-05T05:48:20;98932.47;;;21.70;67.95
73297;BME280;61524;50.938;11.396;2022-08-05T05:50:46;98933.59;;;21.69;67.80
73297;BME280;61524;50.938;11.396;2022-08-05T05:53:11;98930.56;;;21.62;68.49
73297;BME280;61524;50.938;11.396;2022-08-05T05:55:37;98944.19;;;21.54;71.43
73297;BME280;61524;50.938;11.396;2022-08-05T05:58:03;98926.94;;;21.32;74.85
73297;BME280;61524;50.938;11.396;2022-08-05T06:00:28;98920.50;;;21.11;76.70
73297;BME280;61524;50.938;11.396;2022-08-05T06:02:54;98971.78;;;21.04;75.60
73297;BME280;61524;50.938;11.396;2022-08-05T06:05:19;98954.69;;;20.94;77.66
73297;BME280;61524;50.938;11.396;2022-08-05T06:07:45;98961.88;;;20.99;76.91
73297;BME280;61524;50.938;11.396;2022-08-05T06:10:12;98949.72;;;20.96;77.50
73297;BME280;61524;50.938;11.396;2022-08-05T06:12:38;98968.41;;;20.98;76.36
73297;BME280;61524;50.938;11.396;2022-08-05T06:15:04;98966.47;;;20.98;76.10
73297;BME280;61524;50.938;11.396;2022-08-05T06:17:31;98968.72;;;20.88;78.82
73297;BME280;61524;50.938;11.396;2022-08-05T06:19:57;98984.22;;;20.96;78.42
73297;BME280;61524;50.938;11.396;2022-08-05T06:22:24;98976.75;;;21.10;77.47
73297;BME280;61524;50.938;11.396;2022-08-05T06:24:50;98975.19;;;21.35;78.09
73297;BME280;61524;50.938;11.396;2022-08-05T06:27:16;98985.91;;;21.66;78.09
73297;BME280;61524;50.938;11.396;2022-08-05T06:29:42;99010.03;;;22.11;77.02
73297;BME280;61524;50.938;11.396;2022-08-05T06:32:08;98999.97;;;22.59;73.84
73297;BME280;61524;50.938;11.396;2022-08-05T06:34:33;99010.50;;;23.28;71.12
73297;BME280;61524;50.938;11.396;2022-08-05T06:36:59;98995.75;;;23.29;71.69
73297;BME280;61524;50.938;11.396;2022-08-05T06:39:25;98979.63;;;22.86;71.98
73297;BME280;61524;50.938;11.396;2022-08-05T06:41:50;98988.78;;;22.81;73.95
73297;BME280;61524;50.938;11.396;2022-08-05T06:44:16;98991.50;;;22.51;74.95
73297;BME280;61524;50.938;11.396;2022-08-05T06:46:41;98985.25;;;22.51;74.69
73297;BME280;61524;50.938;11.396;2022-08-05T06:49:07;98997.66;;;23.08;73.76
73297;BME280;61524;50.938;11.396;2022-08-05T06:51:32;99031.78;;;24.30;68.91
73297;BME280;61524;50.938;11.396;2022-08-05T06:53:59;99049.88;;;25.42;64.03
73297;BME280;61524;50.938;11.396;2022-08-05T06:56:26;99047.88;;;25.79;62.26
73297;BME280;61524;50.938;11.396;2022-08-05T06:58:52;99038.22;;;25.45;62.94
73297;BME280;61524;50.938;11.396;2022-08-05T07:01:17;99027.03;;;25.09;62.92
73297;BME280;61524;50.938;11.396;2022-08-05T07:03:43;99041.50;;;25.62;61.99
73297;BME280;61524;50.938;11.396;2022-08-05T07:06:08;99013.00;;;24.99;62.89
73297;BME280;61524;50.938;11.396;2022-08-05T07:08:34;99003.53;;;24.59;62.48
73297;BME280;61524;50.938;11.396;2022-08-05T07:10:59;99009.00;;;24.26;64.33
73297;BME280;61524;50.938;11.396;2022-08-05T07:13:25;99030.97;;;24.63;64.50
73297;BME280;61524;50.938;11.396;2022-08-05T07:16:09;99046.47;;;26.13;58.61
73297;BME280;61524;50.938;11.396;2022-08-05T07:18:53;99038.78;;;26.18;57.09
73297;BME280;61524;50.938;11.396;2022-08-05T07:21:18;99068.94;;;27.26;54.95
73297;BME280;61524;50.938;11.396;2022-08-05T07:23:44;99090.22;;;28.03;52.40
73297;BME280;61524;50.938;11.396;2022-08-05T07:26:09;99092.34;;;27.90;52.78
73297;BME280;61524;50.938;11.396;2022-08-05T07:28:35;99091.91;;;28.27;52.51
73297;BME280;61524;50.938;11.396;2022-08-05T07:31:01;99086.47;;;27.91;53.25
73297;BME280;61524;50.938;11.396;2022-08-05T07:33:26;99065.22;;;27.53;53.46
73297;BME280;61524;50.938;11.396;2022-08-05T07:35:52;99066.84;;;27.19;53.79
73297;BME280;61524;50.938;11.396;2022-08-05T07:38:18;99052.22;;;26.83;54.31
73297;BME280;61524;50.938;11.396;2022-08-05T07:40:44;99034.88;;;26.63;55.48
73297;BME280;61524;50.938;11.396;2022-08-05T07:43:10;99029.50;;;26.51;56.59
73297;BME280;61524;50.938;11.396;2022-08-05T07:45:38;99064.81;;;27.51;53.98
73297;BME280;61524;50.938;11.396;2022-08-05T07:48:03;99046.66;;;26.80;54.67
73297;BME280;61524;50.938;11.396;2022-08-05T07:50:29;99045.16;;;26.66;54.24
73297;BME280;61524;50.938;11.396;2022-08-05T07:52:55;99043.66;;;26.69;55.30
73297;BME280;61524;50.938;11.396;2022-08-05T07:55:20;99045.50;;;27.47;53.03
73297;BME280;61524;50.938;11.396;2022-08-05T07:57:46;99085.09;;;28.40;49.94
73297;BME280;61524;50.938;11.396;2022-08-05T08:00:12;99079.81;;;28.31;49.98
73297;BME280;61524;50.938;11.396;2022-08-05T08:02:39;99081.44;;;27.93;50.66
73297;BME280;61524;50.938;11.396;2022-08-05T08:05:05;99065.53;;;27.83;48.78
73297;BME280;61524;50.938;11.396;2022-08-05T08:07:30;99057.91;;;28.15;49.21
73297;BME280;61524;50.938;11.396;2022-08-05T08:09:57;99048.81;;;28.11;47.61
73297;BME280;61524;50.938;11.396;2022-08-05T08:12:22;99041.56;;;28.42;47.36
73297;BME280;61524;50.938;11.396;2022-08-05T08:14:48;99031.34;;;28.23;47.76
73297;BME280;61524;50.938;11.396;2022-08-05T08:17:14;99015.75;;;28.08;46.52
73297;BME280;61524;50.938;11.396;2022-08-05T08:19:40;99013.84;;;27.89;48.93
73297;BME280;61524;50.938;11.396;2022-08-05T08:22:06;98989.75;;;27.24;48.93
73297;BME280;61524;50.938;11.396;2022-08-05T08:24:32;98991.25;;;27.06;48.37
73297;BME280;61524;50.938;11.396;2022-08-05T08:26:58;98995.72;;;26.79;50.70
73297;BME280;61524;50.938;11.396;2022-08-05T08:29:24;98976.53;;;26.15;54.09
73297;BME280;61524;50.938;11.396;2022-08-05T08:31:50;98957.53;;;25.51;59.86
73297;BME280;61524;50.938;11.396;2022-08-05T08:34:21;98945.06;;;25.01;62.23
73297;BME280;61524;50.938;11.396;2022-08-05T08:36:47;99159.75;;;23.99;68.76
73297;BME280;61524;50.938;11.396;2022-08-05T08:39:12;99081.47;;;23.91;71.08
73297;BME280;61524;50.938;11.396;2022-08-05T08:41:40;99068.06;;;23.56;73.23
73297;BME280;61524;50.938;11.396;2022-08-05T08:44:10;99045.63;;;23.50;72.40
73297;BME280;61524;50.938;11.396;2022-08-05T08:46:36;99040.59;;;23.82;70.88
73297;BME280;61524;50.938;11.396;2022-08-05T08:49:03;99046.19;;;24.52;71.10
73297;BME280;61524;50.938;11.396;2022-08-05T08:51:32;99051.63;;;25.22;70.21
73297;BME280;61524;50.938;11.396;2022-08-05T08:53:59;99053.25;;;25.63;66.34
73297;BME280;61524;50.938;11.396;2022-08-05T08:56:25;99058.13;;;26.38;59.29
73297;BME280;61524;50.938;11.396;2022-08-05T08:58:53;99053.03;;;26.68;55.80
73297;BME280;61524;50.938;11.396;2022-08-05T09:01:19;99063.19;;;26.83;53.42
73297;BME280;61524;50.938;11.396;2022-08-05T09:03:46;99063.84;;;27.08;55.42
73297;BME280;61524;50.938;11.396;2022-08-05T09:06:12;99086.00;;;27.35;59.76
73297;BME280;61524;50.938;11.396;2022-08-05T09:08:38;99068.69;;;27.15;56.64
73297;BME280;61524;50.938;11.396;2022-08-05T09:11:03;99073.22;;;27.23;57.51
73297;BME280;61524;50.938;11.396;2022-08-05T09:13:29;99075.47;;;27.05;54.47
73297;BME280;61524;50.938;11.396;2022-08-05T09:15:55;99079.13;;;26.93;56.57
73297;BME280;61524;50.938;11.396;2022-08-05T09:18:21;99069.19;;;26.57;59.04
73297;BME280;61524;50.938;11.396;2022-08-05T09:20:46;99056.22;;;25.98;60.01
73297;BME280;61524;50.938;11.396;2022-08-05T09:23:17;99041.81;;;25.73;60.63
73297;BME280;61524;50.938;11.396;2022-08-05T09:25:49;99044.50;;;25.57;63.47
73297;BME280;61524;50.938;11.396;2022-08-05T09:28:23;99046.94;;;25.22;66.49
73297;BME280;61524;50.938;11.396;2022-08-05T09:30:54;99039.28;;;24.91;68.24
73297;BME280;61524;50.938;11.396;2022-08-05T09:33:21;99040.56;;;24.81;69.07
73297;BME280;61524;50.938;11.396;2022-08-05T09:35:59;99038.41;;;25.11;65.80
73297;BME280;61524;50.938;11.396;2022-08-05T09:38:26;99034.19;;;25.14;67.33
73297;BME280;61524;50.938;11.396;2022-08-05T09:40:52;99043.56;;;25.13;67.93
73297;BME280;61524;50.938;11.396;2022-08-05T09:43:36;99038.94;;;25.05;68.25
73297;BME280;61524;50.938;11.396;2022-08-05T09:46:03;99040.09;;;25.04;65.74
73297;BME280;61524;50.938;11.396;2022-08-05T09:48:33;99058.50;;;25.68;64.65
73297;BME280;61524;50.938;11.396;2022-08-05T09:51:07;99074.81;;;26.33;60.91
73297;BME280;61524;50.938;11.396;2022-08-05T09:53:52;99066.91;;;26.31;59.25
73297;BME280;61524;50.938;11.396;2022-08-05T09:56:25;99081.97;;;26.81;57.38
73297;BME280;61524;50.938;11.396;2022-08-05T09:59:04;99060.44;;;26.67;56.69
73297;BME280;61524;50.938;11.396;2022-08-05T10:01:31;99071.28;;;27.08;57.68
73297;BME280;61524;50.938;11.396;2022-08-05T10:06:32;99074.50;;;27.64;51.16
73297;BME280;61524;50.938;11.396;2022-08-05T10:09:12;99073.81;;;28.25;51.47
73297;BME280;61524;50.938;11.396;2022-08-05T10:11:39;99071.06;;;28.25;51.08
73297;BME280;61524;50.938;11.396;2022-08-05T10:14:25;99070.53;;;28.59;49.94
73297;BME280;61524;50.938;11.396;2022-08-05T10:16:51;99086.28;;;28.85;50.68
73297;BME280;61524;50.938;11.396;2022-08-05T10:19:17;99079.19;;;28.84;48.56
73297;BME280;61524;50.938;11.396;2022-08-05T10:21:43;99087.91;;;28.89;47.82
73297;BME280;61524;50.938;11.396;2022-08-05T10:24:10;99079.69;;;29.12;50.23
73297;BME280;61524;50.938;11.396;2022-08-05T10:26:40;99074.97;;;29.13;44.65
73297;BME280;61524;50.938;11.396;2022-08-05T10:29:06;99066.56;;;29.02;46.50
73297;BME280;61524;50.938;11.396;2022-08-05T10:31:32;99065.44;;;28.84;45.61
73297;BME280;61524;50.938;11.396;2022-08-05T10:33:58;99071.44;;;29.39;44.11
73297;BME280;61524;50.938;11.396;2022-08-05T10:36:23;99080.66;;;29.80;43.76
73297;BME280;61524;50.938;11.396;2022-08-05T10:38:51;99073.81;;;30.00;42.85
73297;BME280;61524;50.938;11.396;2022-08-05T10:44:04;99058.53;;;30.40;40.19
73297;BME280;61524;50.938;11.396;2022-08-05T10:46:48;99057.56;;;30.22;38.25
73297;BME280;61524;50.938;11.396;2022-08-05T10:49:17;99060.56;;;30.47;38.03
73297;BME280;61524;50.938;11.396;2022-08-05T10:51:51;99051.97;;;30.55;38.58
73297;BME280;61524;50.938;11.396;2022-08-05T10:54:22;99043.34;;;30.57;40.14
73297;BME280;61524;50.938;11.396;2022-08-05T10:56:50;99056.41;;;30.67;38.78
73297;BME280;61524;50.938;11.396;2022-08-05T10:59:25;99032.75;;;30.22;38.92
73297;BME280;61524;50.938;11.396;2022-08-05T11:02:12;99026.78;;;30.16;38.45
73297;BME280;61524;50.938;11.396;2022-08-05T11:04:42;99002.00;;;29.86;37.99
73297;BME280;61524;50.938;11.396;2022-08-05T11:07:10;99026.00;;;30.16;39.23
73297;BME280;61524;50.938;11.396;2022-08-05T11:09:52;99026.94;;;30.34;39.72
73297;BME280;61524;50.938;11.396;2022-08-05T11:15:15;99042.25;;;30.69;35.53
73297;BME280;61524;50.938;11.396;2022-08-05T11:17:43;99043.88;;;30.70;35.20
73297;BME280;61524;50.938;11.396;2022-08-05T11:20:31;99048.19;;;30.71;35.14
73297;BME280;61524;50.938;11.396;2022-08-05T11:22:57;99028.81;;;30.64;35.35
73297;BME280;61524;50.938;11.396;2022-08-05T11:25:36;99218.81;;;30.69;37.95
73297;BME280;61524;50.938;11.396;2022-08-05T11:33:38;99150.44;;;30.85;34.01
73297;BME280;61524;50.938;11.396;2022-08-05T11:36:09;99145.75;;;30.93;34.17
73297;BME280;61524;50.938;11.396;2022-08-05T11:41:04;99154.78;;;31.27;34.03
73297;BME280;61524;50.938;11.396;2022-08-05T11:43:31;99128.41;;;30.92;34.19
73297;BME280;61524;50.938;11.396;2022-08-05T11:45:57;99122.50;;;30.90;33.56
73297;BME280;61524;50.938;11.396;2022-08-05T11:48:24;99125.31;;;30.60;34.00
73297;BME280;61524;50.938;11.396;2022-08-05T11:50:50;99110.06;;;30.32;33.97
73297;BME280;61524;50.938;11.396;2022-08-05T11:53:16;99107.50;;;30.17;34.27
73297;BME280;61524;50.938;11.396;2022-08-05T11:55:56;99114.44;;;30.03;35.70
73297;BME280;61524;50.938;11.396;2022-08-05T11:58:44;99111.22;;;29.98;35.25
73297;BME280;61524;50.938;11.396;2022-08-05T12:01:11;99096.00;;;29.81;35.01
73297;BME280;61524;50.938;11.396;2022-08-05T12:03:44;99101.19;;;29.56;36.08
73297;BME280;61524;50.938;11.396;2022-08-05T12:06:11;99092.19;;;29.06;36.10
73297;BME280;61524;50.938;11.396;2022-08-05T12:08:47;99092.69;;;28.92;36.66
73297;BME280;61524;50.938;11.396;2022-08-05T12:11:24;99094.06;;;28.79;37.10
73297;BME280;61524;50.938;11.396;2022-08-05T12:13:54;99105.53;;;28.85;36.97
73297;BME280;61524;50.938;11.396;2022-08-05T12:16:21;99098.81;;;28.82;36.32
73297;BME280;61524;50.938;11.396;2022-08-05T12:18:46;99086.63;;;28.83;37.35
73297;BME280;61524;50.938;11.396;2022-08-05T12:21:32;99088.03;;;28.73;36.02
73297;BME280;61524;50.938;11.396;2022-08-05T12:24:03;99079.69;;;28.66;37.29
73297;BME280;61524;50.938;11.396;2022-08-05T12:26:34;99078.69;;;28.55;36.49
73297;BME280;61524;50.938;11.396;2022-08-05T12:29:00;99078.19;;;28.49;37.18
73297;BME280;61524;50.938;11.396;2022-08-05T12:31:26;99083.44;;;28.35;37.77
73297;BME280;61524;50.938;11.396;2022-08-05T12:33:52;99079.50;;;28.56;36.44
73297;BME280;61524;50.938;11.396;2022-08-05T12:36:19;99107.38;;;29.23;36.34
73297;BME280;61524;50.938;11.396;2022-08-05T12:38:45;99120.72;;;30.04;35.04
73297;BME280;61524;50.938;11.396;2022-08-05T12:41:12;99136.94;;;30.76;34.78
73297;BME280;61524;50.938;11.396;2022-08-05T12:43:52;99131.13;;;30.89;34.54
73297;BME280;61524;50.938;11.396;2022-08-05T12:46:29;99134.31;;;30.91;33.27
73297;BME280;61524;50.938;11.396;2022-08-05T12:49:08;99114.09;;;30.42;33.34
73297;BME280;61524;50.938;11.396;2022-08-05T12:56:50;99095.34;;;29.91;34.60
73297;BME280;61524;50.938;11.396;2022-08-05T12:59:18;99101.63;;;29.88;34.82
73297;BME280;61524;50.938;11.396;2022-08-05T13:01:52;99097.16;;;29.50;39.87
73297;BME280;61524;50.938;11.396;2022-08-05T13:04:19;99088.78;;;29.16;41.18
73297;BME280;61524;50.938;11.396;2022-08-05T13:06:45;99070.25;;;28.67;42.76
73297;BME280;61524;50.938;11.396;2022-08-05T13:09:12;99070.69;;;28.27;43.74
73297;BME280;61524;50.938;11.396;2022-08-05T13:11:43;99073.59;;;28.34;43.70
73297;BME280;61524;50.938;11.396;2022-08-05T13:14:21;99180.44;;;28.55;42.68
73297;BME280;61524;50.938;11.396;2022-08-05T13:16:52;99098.34;;;28.99;41.64
73297;BME280;61524;50.938;11.396;2022-08-05T13:19:19;99121.78;;;29.39;40.22
73297;BME280;61524;50.938;11.396;2022-08-05T13:21:45;99135.94;;;29.64;39.61
73297;BME280;61524;50.938;11.396;2022-08-05T13:24:12;99122.28;;;29.71;38.27
73297;BME280;61524;50.938;11.396;2022-08-05T13:26:37;99107.38;;;29.49;37.69
73297;BME280;61524;50.938;11.396;2022-08-05T13:29:03;99107.09;;;29.54;37.97